sensor_id;sensor_type;location;lat;lon;timestamp;P1;durP1;ratioP1;P2;durP2;ratioP2
68074;SDS011;54864;52.002;5.468;2023-05-15T00:00:41;25.10;;;15.43;;
68074;SDS011;54864;52.002;5.468;2023-05-15T00:01:44;22.85;;;16.48;;
68074;SDS011;54864;52.002;5.468;2023-05-15T00:02:46;26.15;;;15.73;;
68074;SDS011;54864;52.002;5.468;2023-05-15T00:03:48;28.38;;;15.95;;
68074;SDS011;54864;52.002;5.468;2023-05-15T00:04:51;25.98;;;15.88;;
68074;SDS011;54864;52.002;5.468;2023-05-15T00:05:52;25.77;;;17.10;;
68074;SDS011;54864;52.002;5.468;2023-05-15T00:06:56;23.02;;;15.90;;
68074;SDS011;54864;52.002;5.468;2023-05-15T00:07:58;28.02;;;16.75;;
68074;SDS011;54864;52.002;5.468;2023-05-15T00:08:59;24.42;;;16.40;;
68074;SDS011;54864;52.002;5.468;2023-05-15T00:10:01;22.38;;;15.73;;
68074;SDS011;54864;52.002;5.468;2023-05-15T00:11:02;23.45;;;15.55;;
68074;SDS011;54864;52.002;5.468;2023-05-15T00:12:04;20.90;;;15.43;;
68074;SDS011;54864;52.002;5.468;2023-05-15T00:13:06;23.70;;;16.23;;
68074;SDS011;54864;52.002;5.468;2023-05-15T00:14:07;22.05;;;16.27;;
68074;SDS011;54864;52.002;5.468;2023-05-15T00:15:09;23.77;;;16.48;;
68074;SDS011;54864;52.002;5.468;2023-05-15T00:16:10;25.50;;;15.63;;
68074;SDS011;54864;52.002;5.468;2023-05-15T00:17:12;24.92;;;16.17;;
68074;SDS011;54864;52.002;5.468;2023-05-15T00:18:14;25.70;;;16.92;;
68074;SDS011;54864;52.002;5.468;2023-05-15T00:19:18;25.33;;;16.10;;
68074;SDS011;54864;52.002;5.468;2023-05-15T00:20:19;27.42;;;16.48;;
68074;SDS011;54864;52.002;5.468;2023-05-15T00:21:21;24.42;;;15.50;;
68074;SDS011;54864;52.002;5.468;2023-05-15T00:22:22;27.60;;;16.90;;
68074;SDS011;54864;52.002;5.468;2023-05-15T00:23:24;25.42;;;16.52;;
68074;SDS011;54864;52.002;5.468;2023-05-15T00:24:25;24.35;;;16.55;;
68074;SDS011;54864;52.002;5.468;2023-05-15T00:25:27;25.20;;;16.27;;
68074;SDS011;54864;52.002;5.468;2023-05-15T00:26:28;25.60;;;16.80;;
68074;SDS011;54864;52.002;5.468;2023-05-15T00:27:30;24.83;;;15.90;;
68074;SDS011;54864;52.002;5.468;2023-05-15T00:28:31;27.45;;;16.90;;
68074;SDS011;54864;52.002;5.468;2023-05-15T00:29:32;22.98;;;15.88;;
68074;SDS011;54864;52.002;5.468;2023-05-15T00:30:33;25.73;;;16.83;;
68074;SDS011;54864;52.002;5.468;2023-05-15T00:31:34;23.30;;;16.10;;
68074;SDS011;54864;52.002;5.468;2023-05-15T00:32:35;23.13;;;16.70;;
68074;SDS011;54864;52.002;5.468;2023-05-15T00:33:38;21.98;;;16.00;;
68074;SDS011;54864;52.002;5.468;2023-05-15T00:34:39;26.77;;;16.23;;
68074;SDS011;54864;52.002;5.468;2023-05-15T00:35:41;29.33;;;15.88;;
68074;SDS011;54864;52.002;5.468;2023-05-15T00:36:41;26.17;;;16.63;;
68074;SDS011;54864;52.002;5.468;2023-05-15T00:37:44;25.15;;;15.85;;
68074;SDS011;54864;52.002;5.468;2023-05-15T00:38:45;21.52;;;16.27;;
68074;SDS011;54864;52.002;5.468;2023-05-15T00:39:47;26.45;;;16.88;;
68074;SDS011;54864;52.002;5.468;2023-05-15T00:40:47;27.83;;;16.80;;
68074;SDS011;54864;52.002;5.468;2023-05-15T00:41:50;26.70;;;17.63;;
68074;SDS011;54864;52.002;5.468;2023-05-15T00:42:52;23.73;;;16.45;;
68074;SDS011;54864;52.002;5.468;2023-05-15T00:43:55;25.42;;;17.60;;
68074;SDS011;54864;52.002;5.468;2023-05-15T00:44:57;25.33;;;16.33;;
68074;SDS011;54864;52.002;5.468;2023-05-15T00:46:01;24.35;;;16.52;;
68074;SDS011;54864;52.002;5.468;2023-05-15T00:47:03;27.83;;;17.33;;
68074;SDS011;54864;52.002;5.468;2023-05-15T00:48:08;24.60;;;17.87;;
68074;SDS011;54864;52.002;5.468;2023-05-15T00:49:10;26.98;;;16.65;;
68074;SDS011;54864;52.002;5.468;2023-05-15T00:50:13;24.27;;;17.42;;
68074;SDS011;54864;52.002;5.468;2023-05-15T00:51:14;29.15;;;17.52;;
68074;SDS011;54864;52.002;5.468;2023-05-15T00:52:17;25.95;;;17.73;;
68074;SDS011;54864;52.002;5.468;2023-05-15T00:53:18;27.35;;;18.92;;
68074;SDS011;54864;52.002;5.468;2023-05-15T00:54:20;29.55;;;18.38;;
68074;SDS011;54864;52.002;5.468;2023-05-15T00:55:23;30.45;;;18.73;;
68074;SDS011;54864;52.002;5.468;2023-05-15T00:56:26;28.92;;;19.60;;
68074;SDS011;54864;52.002;5.468;2023-05-15T00:57:29;29.85;;;19.80;;
68074;SDS011;54864;52.002;5.468;2023-05-15T00:58:32;27.98;;;19.90;;
68074;SDS011;54864;52.002;5.468;2023-05-15T00:59:33;30.25;;;19.55;;
68074;SDS011;54864;52.002;5.468;2023-05-15T01:00:36;32.47;;;20.98;;
68074;SDS011;54864;52.002;5.468;2023-05-15T01:01:38;33.83;;;19.65;;
68074;SDS011;54864;52.002;5.468;2023-05-15T01:02:40;29.90;;;19.83;;
68074;SDS011;54864;52.002;5.468;2023-05-15T01:03:41;26.75;;;18.75;;
68074;SDS011;54864;52.002;5.468;2023-05-15T01:04:44;27.05;;;19.35;;
68074;SDS011;54864;52.002;5.468;2023-05-15T01:05:45;31.27;;;20.85;;
68074;SDS011;54864;52.002;5.468;2023-05-15T01:06:47;31.00;;;20.05;;
68074;SDS011;54864;52.002;5.468;2023-05-15T01:07:51;30.00;;;20.85;;
68074;SDS011;54864;52.002;5.468;2023-05-15T01:08:58;28.98;;;19.50;;
68074;SDS011;54864;52.002;5.468;2023-05-15T01:10:01;31.60;;;21.13;;
68074;SDS011;54864;52.002;5.468;2023-05-15T01:11:04;33.08;;;21.02;;
68074;SDS011;54864;52.002;5.468;2023-05-15T01:12:05;31.83;;;21.40;;
68074;SDS011;54864;52.002;5.468;2023-05-15T01:13:09;34.15;;;20.60;;
68074;SDS011;54864;52.002;5.468;2023-05-15T01:14:13;40.13;;;21.00;;
68074;SDS011;54864;52.002;5.468;2023-05-15T01:15:14;29.20;;;20.30;;
68074;SDS011;54864;52.002;5.468;2023-05-15T01:16:15;32.60;;;21.05;;
68074;SDS011;54864;52.002;5.468;2023-05-15T01:17:17;32.20;;;20.15;;
68074;SDS011;54864;52.002;5.468;2023-05-15T01:18:18;34.35;;;22.17;;
68074;SDS011;54864;52.002;5.468;2023-05-15T01:19:19;32.05;;;20.40;;
68074;SDS011;54864;52.002;5.468;2023-05-15T01:20:21;32.30;;;21.33;;
68074;SDS011;54864;52.002;5.468;2023-05-15T01:21:36;31.73;;;21.05;;
68074;SDS011;54864;52.002;5.468;2023-05-15T01:23:05;30.60;;;20.88;;
68074;SDS011;54864;52.002;5.468;2023-05-15T01:24:17;38.30;;;21.92;;
68074;SDS011;54864;52.002;5.468;2023-05-15T01:27:14;33.83;;;21.75;;
68074;SDS011;54864;52.002;5.468;2023-05-15T01:28:21;33.17;;;21.23;;
68074;SDS011;54864;52.002;5.468;2023-05-15T01:29:31;31.63;;;21.02;;
68074;SDS011;54864;52.002;5.468;2023-05-15T01:30:38;36.05;;;21.60;;
68074;SDS011;54864;52.002;5.468;2023-05-15T01:31:46;34.17;;;21.63;;
68074;SDS011;54864;52.002;5.468;2023-05-15T01:32:54;33.53;;;21.70;;
68074;SDS011;54864;52.002;5.468;2023-05-15T01:34:05;33.30;;;22.17;;
68074;SDS011;54864;52.002;5.468;2023-05-15T01:35:09;32.80;;;22.08;;
68074;SDS011;54864;52.002;5.468;2023-05-15T01:36:15;33.95;;;22.02;;
68074;SDS011;54864;52.002;5.468;2023-05-15T01:37:25;31.70;;;21.25;;
68074;SDS011;54864;52.002;5.468;2023-05-15T01:38:29;34.33;;;23.55;;
68074;SDS011;54864;52.002;5.468;2023-05-15T01:39:37;33.45;;;22.35;;
68074;SDS011;54864;52.002;5.468;2023-05-15T01:40:41;31.55;;;21.98;;
68074;SDS011;54864;52.002;5.468;2023-05-15T01:41:45;31.40;;;21.75;;
68074;SDS011;54864;52.002;5.468;2023-05-15T01:42:53;38.25;;;22.88;;
68074;SDS011;54864;52.002;5.468;2023-05-15T01:44:01;31.53;;;22.30;;
68074;SDS011;54864;52.002;5.468;2023-05-15T01:45:06;39.85;;;24.52;;
68074;SDS011;54864;52.002;5.468;2023-05-15T01:46:12;42.25;;;23.38;;
68074;SDS011;54864;52.002;5.468;2023-05-15T01:47:16;35.42;;;23.00;;
68074;SDS011;54864;52.002;5.468;2023-05-15T01:48:21;32.75;;;22.77;;
68074;SDS011;54864;52.002;5.468;2023-05-15T01:49:23;35.40;;;24.23;;
68074;SDS011;54864;52.002;5.468;2023-05-15T01:50:27;36.00;;;22.50;;
68074;SDS011;54864;52.002;5.468;2023-05-15T01:51:32;35.22;;;22.20;;
68074;SDS011;54864;52.002;5.468;2023-05-15T01:52:37;32.33;;;22.98;;
68074;SDS011;54864;52.002;5.468;2023-05-15T01:53:42;32.22;;;22.05;;
68074;SDS011;54864;52.002;5.468;2023-05-15T01:54:44;34.35;;;22.77;;
68074;SDS011;54864;52.002;5.468;2023-05-15T01:55:46;35.30;;;22.20;;
68074;SDS011;54864;52.002;5.468;2023-05-15T01:56:49;33.65;;;22.20;;
68074;SDS011;54864;52.002;5.468;2023-05-15T01:57:51;33.30;;;22.15;;
68074;SDS011;54864;52.002;5.468;2023-05-15T01:58:59;34.53;;;22.25;;
68074;SDS011;54864;52.002;5.468;2023-05-15T02:00:02;35.10;;;22.20;;
68074;SDS011;54864;52.002;5.468;2023-05-15T02:01:08;31.58;;;22.00;;
68074;SDS011;54864;52.002;5.468;2023-05-15T02:02:09;34.20;;;21.10;;
68074;SDS011;54864;52.002;5.468;2023-05-15T02:03:12;29.88;;;22.58;;
68074;SDS011;54864;52.002;5.468;2023-05-15T02:04:14;38.25;;;22.33;;
68074;SDS011;54864;52.002;5.468;2023-05-15T02:05:18;37.42;;;24.85;;
68074;SDS011;54864;52.002;5.468;2023-05-15T02:06:20;35.92;;;22.95;;
68074;SDS011;54864;52.002;5.468;2023-05-15T02:07:22;35.97;;;22.20;;
68074;SDS011;54864;52.002;5.468;2023-05-15T02:08:25;36.55;;;23.98;;
68074;SDS011;54864;52.002;5.468;2023-05-15T02:09:28;36.63;;;24.58;;
68074;SDS011;54864;52.002;5.468;2023-05-15T02:10:30;38.38;;;24.88;;
68074;SDS011;54864;52.002;5.468;2023-05-15T02:11:33;36.72;;;24.55;;
68074;SDS011;54864;52.002;5.468;2023-05-15T02:12:34;38.42;;;24.50;;
68074;SDS011;54864;52.002;5.468;2023-05-15T02:13:38;42.07;;;25.63;;
68074;SDS011;54864;52.002;5.468;2023-05-15T02:14:40;39.80;;;25.52;;
68074;SDS011;54864;52.002;5.468;2023-05-15T02:15:46;43.42;;;26.45;;
68074;SDS011;54864;52.002;5.468;2023-05-15T02:16:47;37.00;;;24.77;;
68074;SDS011;54864;52.002;5.468;2023-05-15T02:17:49;42.38;;;25.45;;
68074;SDS011;54864;52.002;5.468;2023-05-15T02:18:50;46.38;;;26.85;;
68074;SDS011;54864;52.002;5.468;2023-05-15T02:19:52;42.35;;;26.50;;
68074;SDS011;54864;52.002;5.468;2023-05-15T02:20:52;40.87;;;26.43;;
68074;SDS011;54864;52.002;5.468;2023-05-15T02:21:54;42.95;;;27.90;;
68074;SDS011;54864;52.002;5.468;2023-05-15T02:22:55;43.22;;;26.83;;
68074;SDS011;54864;52.002;5.468;2023-05-15T02:23:57;41.40;;;26.92;;
68074;SDS011;54864;52.002;5.468;2023-05-15T02:24:58;44.97;;;26.87;;
68074;SDS011;54864;52.002;5.468;2023-05-15T02:26:03;44.13;;;27.13;;
68074;SDS011;54864;52.002;5.468;2023-05-15T02:27:25;44.05;;;27.30;;
68074;SDS011;54864;52.002;5.468;2023-05-15T02:28:29;43.08;;;26.25;;
68074;SDS011;54864;52.002;5.468;2023-05-15T02:29:38;44.28;;;26.90;;
68074;SDS011;54864;52.002;5.468;2023-05-15T02:30:54;42.17;;;26.63;;
68074;SDS011;54864;52.002;5.468;2023-05-15T02:31:58;43.50;;;26.88;;
68074;SDS011;54864;52.002;5.468;2023-05-15T02:33:11;48.83;;;29.25;;
68074;SDS011;54864;52.002;5.468;2023-05-15T02:34:24;47.63;;;29.23;;
68074;SDS011;54864;52.002;5.468;2023-05-15T02:35:31;45.45;;;29.25;;
68074;SDS011;54864;52.002;5.468;2023-05-15T02:36:37;45.67;;;30.98;;
68074;SDS011;54864;52.002;5.468;2023-05-15T02:37:41;52.33;;;32.58;;
68074;SDS011;54864;52.002;5.468;2023-05-15T02:38:47;51.42;;;31.67;;
68074;SDS011;54864;52.002;5.468;2023-05-15T02:39:51;55.20;;;32.65;;
68074;SDS011;54864;52.002;5.468;2023-05-15T02:40:57;52.88;;;33.88;;
68074;SDS011;54864;52.002;5.468;2023-05-15T02:42:00;55.45;;;32.88;;
68074;SDS011;54864;52.002;5.468;2023-05-15T02:43:02;58.38;;;33.80;;
68074;SDS011;54864;52.002;5.468;2023-05-15T02:44:04;57.95;;;34.63;;
68074;SDS011;54864;52.002;5.468;2023-05-15T02:45:09;55.67;;;33.17;;
68074;SDS011;54864;52.002;5.468;2023-05-15T02:46:11;55.80;;;35.33;;
68074;SDS011;54864;52.002;5.468;2023-05-15T02:47:14;60.43;;;35.60;;
68074;SDS011;54864;52.002;5.468;2023-05-15T02:48:16;59.22;;;35.90;;
68074;SDS011;54864;52.002;5.468;2023-05-15T02:49:18;60.60;;;36.75;;
68074;SDS011;54864;52.002;5.468;2023-05-15T02:50:20;65.72;;;36.55;;
68074;SDS011;54864;52.002;5.468;2023-05-15T02:51:22;67.18;;;37.17;;
68074;SDS011;54864;52.002;5.468;2023-05-15T02:52:26;67.72;;;37.40;;
68074;SDS011;54864;52.002;5.468;2023-05-15T02:53:28;66.13;;;38.28;;
68074;SDS011;54864;52.002;5.468;2023-05-15T02:54:29;62.25;;;36.40;;
68074;SDS011;54864;52.002;5.468;2023-05-15T02:55:34;65.10;;;38.63;;
68074;SDS011;54864;52.002;5.468;2023-05-15T02:56:35;65.32;;;37.40;;
68074;SDS011;54864;52.002;5.468;2023-05-15T02:57:36;69.38;;;39.92;;
68074;SDS011;54864;52.002;5.468;2023-05-15T02:58:37;64.25;;;38.38;;
68074;SDS011;54864;52.002;5.468;2023-05-15T02:59:40;62.60;;;37.40;;
68074;SDS011;54864;52.002;5.468;2023-05-15T03:00:42;63.50;;;37.53;;
68074;SDS011;54864;52.002;5.468;2023-05-15T03:01:46;63.92;;;37.13;;
68074;SDS011;54864;52.002;5.468;2023-05-15T03:02:48;60.25;;;37.17;;
68074;SDS011;54864;52.002;5.468;2023-05-15T03:03:49;66.28;;;39.45;;
68074;SDS011;54864;52.002;5.468;2023-05-15T03:04:52;62.22;;;37.90;;
68074;SDS011;54864;52.002;5.468;2023-05-15T03:05:52;61.90;;;37.95;;
68074;SDS011;54864;52.002;5.468;2023-05-15T03:06:54;68.13;;;39.58;;
68074;SDS011;54864;52.002;5.468;2023-05-15T03:07:55;65.25;;;38.75;;
68074;SDS011;54864;52.002;5.468;2023-05-15T03:08:57;69.43;;;39.38;;
68074;SDS011;54864;52.002;5.468;2023-05-15T03:09:58;64.87;;;39.07;;
68074;SDS011;54864;52.002;5.468;2023-05-15T03:11:00;65.18;;;39.72;;
68074;SDS011;54864;52.002;5.468;2023-05-15T03:12:04;70.55;;;39.20;;
68074;SDS011;54864;52.002;5.468;2023-05-15T03:13:06;67.78;;;38.95;;
68074;SDS011;54864;52.002;5.468;2023-05-15T03:14:06;68.10;;;39.47;;
68074;SDS011;54864;52.002;5.468;2023-05-15T03:15:08;65.72;;;39.20;;
68074;SDS011;54864;52.002;5.468;2023-05-15T03:16:10;66.80;;;40.00;;
68074;SDS011;54864;52.002;5.468;2023-05-15T03:17:12;70.55;;;39.95;;
68074;SDS011;54864;52.002;5.468;2023-05-15T03:18:13;68.45;;;39.35;;
68074;SDS011;54864;52.002;5.468;2023-05-15T03:19:15;64.38;;;39.05;;
68074;SDS011;54864;52.002;5.468;2023-05-15T03:20:15;68.20;;;40.53;;
68074;SDS011;54864;52.002;5.468;2023-05-15T03:21:17;72.05;;;42.13;;
68074;SDS011;54864;52.002;5.468;2023-05-15T03:22:20;71.07;;;41.35;;
68074;SDS011;54864;52.002;5.468;2023-05-15T03:23:20;67.97;;;40.38;;
68074;SDS011;54864;52.002;5.468;2023-05-15T03:24:22;70.65;;;39.72;;
68074;SDS011;54864;52.002;5.468;2023-05-15T03:25:24;68.88;;;39.55;;
68074;SDS011;54864;52.002;5.468;2023-05-15T03:26:26;67.53;;;40.23;;
68074;SDS011;54864;52.002;5.468;2023-05-15T03:27:26;68.90;;;40.40;;
68074;SDS011;54864;52.002;5.468;2023-05-15T03:28:31;71.60;;;40.30;;
68074;SDS011;54864;52.002;5.468;2023-05-15T03:29:32;71.80;;;40.47;;
68074;SDS011;54864;52.002;5.468;2023-05-15T03:30:33;69.53;;;41.00;;
68074;SDS011;54864;52.002;5.468;2023-05-15T03:31:38;68.57;;;40.53;;
68074;SDS011;54864;52.002;5.468;2023-05-15T03:32:40;70.72;;;41.45;;
68074;SDS011;54864;52.002;5.468;2023-05-15T03:33:41;70.60;;;40.67;;
68074;SDS011;54864;52.002;5.468;2023-05-15T03:34:44;69.22;;;41.72;;
68074;SDS011;54864;52.002;5.468;2023-05-15T03:35:45;73.72;;;42.60;;
68074;SDS011;54864;52.002;5.468;2023-05-15T03:36:47;71.68;;;40.95;;
68074;SDS011;54864;52.002;5.468;2023-05-15T03:37:48;78.43;;;42.83;;
68074;SDS011;54864;52.002;5.468;2023-05-15T03:38:49;75.28;;;42.65;;
68074;SDS011;54864;52.002;5.468;2023-05-15T03:39:51;74.95;;;43.88;;
68074;SDS011;54864;52.002;5.468;2023-05-15T03:40:52;73.38;;;42.60;;
68074;SDS011;54864;52.002;5.468;2023-05-15T03:41:53;72.88;;;43.88;;
68074;SDS011;54864;52.002;5.468;2023-05-15T03:42:54;78.05;;;44.00;;
68074;SDS011;54864;52.002;5.468;2023-05-15T03:43:56;75.95;;;43.13;;
68074;SDS011;54864;52.002;5.468;2023-05-15T03:44:57;73.22;;;44.22;;
68074;SDS011;54864;52.002;5.468;2023-05-15T03:45:58;78.45;;;44.88;;
68074;SDS011;54864;52.002;5.468;2023-05-15T03:47:01;76.57;;;45.33;;
68074;SDS011;54864;52.002;5.468;2023-05-15T03:48:06;76.57;;;42.72;;
68074;SDS011;54864;52.002;5.468;2023-05-15T03:49:10;73.97;;;44.05;;
68074;SDS011;54864;52.002;5.468;2023-05-15T03:50:11;83.30;;;44.47;;
68074;SDS011;54864;52.002;5.468;2023-05-15T03:51:12;78.73;;;44.97;;
68074;SDS011;54864;52.002;5.468;2023-05-15T03:52:14;79.63;;;44.60;;
68074;SDS011;54864;52.002;5.468;2023-05-15T03:53:15;75.03;;;44.38;;
68074;SDS011;54864;52.002;5.468;2023-05-15T03:54:19;82.40;;;46.28;;
68074;SDS011;54864;52.002;5.468;2023-05-15T03:55:20;79.55;;;45.22;;
68074;SDS011;54864;52.002;5.468;2023-05-15T03:56:22;80.00;;;46.03;;
68074;SDS011;54864;52.002;5.468;2023-05-15T03:57:23;79.35;;;46.85;;
68074;SDS011;54864;52.002;5.468;2023-05-15T03:58:25;83.03;;;47.30;;
68074;SDS011;54864;52.002;5.468;2023-05-15T03:59:26;80.60;;;47.08;;
68074;SDS011;54864;52.002;5.468;2023-05-15T04:00:28;73.07;;;45.00;;
68074;SDS011;54864;52.002;5.468;2023-05-15T04:01:32;78.78;;;46.78;;
68074;SDS011;54864;52.002;5.468;2023-05-15T04:02:35;83.38;;;45.85;;
68074;SDS011;54864;52.002;5.468;2023-05-15T04:03:36;82.93;;;46.22;;
68074;SDS011;54864;52.002;5.468;2023-05-15T04:04:37;77.85;;;45.78;;
68074;SDS011;54864;52.002;5.468;2023-05-15T04:05:38;78.55;;;45.53;;
68074;SDS011;54864;52.002;5.468;2023-05-15T04:06:40;77.65;;;46.42;;
68074;SDS011;54864;52.002;5.468;2023-05-15T04:07:49;78.53;;;45.60;;
68074;SDS011;54864;52.002;5.468;2023-05-15T04:08:51;74.00;;;46.17;;
68074;SDS011;54864;52.002;5.468;2023-05-15T04:09:52;78.50;;;46.23;;
68074;SDS011;54864;52.002;5.468;2023-05-15T04:10:54;79.22;;;45.78;;
68074;SDS011;54864;52.002;5.468;2023-05-15T04:11:54;81.63;;;45.53;;
68074;SDS011;54864;52.002;5.468;2023-05-15T04:12:56;83.55;;;45.70;;
68074;SDS011;54864;52.002;5.468;2023-05-15T04:13:57;74.33;;;46.37;;
68074;SDS011;54864;52.002;5.468;2023-05-15T04:15:04;74.22;;;45.78;;
68074;SDS011;54864;52.002;5.468;2023-05-15T04:16:13;69.85;;;44.95;;
68074;SDS011;54864;52.002;5.468;2023-05-15T04:17:15;76.97;;;44.60;;
68074;SDS011;54864;52.002;5.468;2023-05-15T04:18:17;70.85;;;44.10;;
68074;SDS011;54864;52.002;5.468;2023-05-15T04:19:19;71.40;;;43.70;;
68074;SDS011;54864;52.002;5.468;2023-05-15T04:20:23;71.53;;;43.70;;
68074;SDS011;54864;52.002;5.468;2023-05-15T04:21:25;68.47;;;42.47;;
68074;SDS011;54864;52.002;5.468;2023-05-15T04:22:25;71.20;;;42.45;;
68074;SDS011;54864;52.002;5.468;2023-05-15T04:23:27;73.63;;;43.92;;
68074;SDS011;54864;52.002;5.468;2023-05-15T04:24:28;68.38;;;40.97;;
68074;SDS011;54864;52.002;5.468;2023-05-15T04:25:29;66.72;;;41.20;;
68074;SDS011;54864;52.002;5.468;2023-05-15T04:26:30;64.30;;;40.30;;
68074;SDS011;54864;52.002;5.468;2023-05-15T04:27:32;62.08;;;38.97;;
68074;SDS011;54864;52.002;5.468;2023-05-15T04:28:33;65.80;;;41.27;;
68074;SDS011;54864;52.002;5.468;2023-05-15T04:29:35;68.88;;;40.22;;
68074;SDS011;54864;52.002;5.468;2023-05-15T04:30:35;65.00;;;39.55;;
68074;SDS011;54864;52.002;5.468;2023-05-15T04:31:37;70.20;;;40.50;;
68074;SDS011;54864;52.002;5.468;2023-05-15T04:32:38;66.70;;;40.92;;
68074;SDS011;54864;52.002;5.468;2023-05-15T04:33:41;64.63;;;39.65;;
68074;SDS011;54864;52.002;5.468;2023-05-15T04:34:45;66.88;;;41.13;;
68074;SDS011;54864;52.002;5.468;2023-05-15T04:35:47;70.45;;;40.90;;
68074;SDS011;54864;52.002;5.468;2023-05-15T04:36:47;68.57;;;41.33;;
68074;SDS011;54864;52.002;5.468;2023-05-15T04:37:49;69.40;;;41.40;;
68074;SDS011;54864;52.002;5.468;2023-05-15T04:38:50;66.90;;;39.92;;
68074;SDS011;54864;52.002;5.468;2023-05-15T04:39:52;73.40;;;39.42;;
68074;SDS011;54864;52.002;5.468;2023-05-15T04:40:53;70.68;;;40.55;;
68074;SDS011;54864;52.002;5.468;2023-05-15T04:41:55;64.18;;;39.45;;
68074;SDS011;54864;52.002;5.468;2023-05-15T04:42:57;68.20;;;40.92;;
68074;SDS011;54864;52.002;5.468;2023-05-15T04:43:59;68.43;;;41.70;;
68074;SDS011;54864;52.002;5.468;2023-05-15T04:45:00;66.10;;;41.20;;
68074;SDS011;54864;52.002;5.468;2023-05-15T04:46:02;65.70;;;40.95;;
68074;SDS011;54864;52.002;5.468;2023-05-15T04:47:03;68.45;;;41.65;;
68074;SDS011;54864;52.002;5.468;2023-05-15T04:48:05;73.67;;;41.47;;
68074;SDS011;54864;52.002;5.468;2023-05-15T04:49:07;76.03;;;42.77;;
68074;SDS011;54864;52.002;5.468;2023-05-15T04:50:09;72.60;;;44.05;;
68074;SDS011;54864;52.002;5.468;2023-05-15T04:51:13;68.72;;;41.20;;
68074;SDS011;54864;52.002;5.468;2023-05-15T04:52:15;70.10;;;42.05;;
68074;SDS011;54864;52.002;5.468;2023-05-15T04:53:15;68.63;;;41.17;;
68074;SDS011;54864;52.002;5.468;2023-05-15T04:54:17;73.28;;;42.17;;
68074;SDS011;54864;52.002;5.468;2023-05-15T04:55:18;65.97;;;41.17;;
68074;SDS011;54864;52.002;5.468;2023-05-15T04:56:20;68.53;;;40.47;;
68074;SDS011;54864;52.002;5.468;2023-05-15T04:57:20;67.72;;;41.20;;
68074;SDS011;54864;52.002;5.468;2023-05-15T04:58:22;68.47;;;40.38;;
68074;SDS011;54864;52.002;5.468;2023-05-15T04:59:23;66.90;;;39.17;;
68074;SDS011;54864;52.002;5.468;2023-05-15T05:00:27;65.10;;;39.08;;
68074;SDS011;54864;52.002;5.468;2023-05-15T05:01:27;60.65;;;38.17;;
68074;SDS011;54864;52.002;5.468;2023-05-15T05:02:30;66.80;;;38.55;;
68074;SDS011;54864;52.002;5.468;2023-05-15T05:03:30;61.00;;;37.72;;
68074;SDS011;54864;52.002;5.468;2023-05-15T05:04:33;64.47;;;38.53;;
68074;SDS011;54864;52.002;5.468;2023-05-15T05:05:34;61.72;;;38.13;;
68074;SDS011;54864;52.002;5.468;2023-05-15T05:06:36;65.25;;;38.65;;
68074;SDS011;54864;52.002;5.468;2023-05-15T05:07:36;62.88;;;38.47;;
68074;SDS011;54864;52.002;5.468;2023-05-15T05:08:38;63.13;;;38.38;;
68074;SDS011;54864;52.002;5.468;2023-05-15T05:09:39;63.88;;;38.63;;
68074;SDS011;54864;52.002;5.468;2023-05-15T05:10:46;59.65;;;38.22;;
68074;SDS011;54864;52.002;5.468;2023-05-15T05:11:47;63.30;;;37.70;;
68074;SDS011;54864;52.002;5.468;2023-05-15T05:12:49;62.08;;;39.15;;
68074;SDS011;54864;52.002;5.468;2023-05-15T05:13:49;62.80;;;38.75;;
68074;SDS011;54864;52.002;5.468;2023-05-15T05:14:51;63.03;;;39.20;;
68074;SDS011;54864;52.002;5.468;2023-05-15T05:15:55;60.88;;;38.08;;
68074;SDS011;54864;52.002;5.468;2023-05-15T05:16:59;59.70;;;37.17;;
68074;SDS011;54864;52.002;5.468;2023-05-15T05:18:03;61.30;;;37.83;;
68074;SDS011;54864;52.002;5.468;2023-05-15T05:19:05;66.97;;;38.08;;
68074;SDS011;54864;52.002;5.468;2023-05-15T05:20:08;60.55;;;38.00;;
68074;SDS011;54864;52.002;5.468;2023-05-15T05:21:11;59.67;;;38.50;;
68074;SDS011;54864;52.002;5.468;2023-05-15T05:22:11;58.50;;;37.33;;
68074;SDS011;54864;52.002;5.468;2023-05-15T05:23:13;61.17;;;39.30;;
68074;SDS011;54864;52.002;5.468;2023-05-15T05:24:14;58.13;;;39.15;;
68074;SDS011;54864;52.002;5.468;2023-05-15T05:25:16;62.65;;;39.20;;
68074;SDS011;54864;52.002;5.468;2023-05-15T05:26:17;57.50;;;37.67;;
68074;SDS011;54864;52.002;5.468;2023-05-15T05:27:18;58.80;;;38.00;;
68074;SDS011;54864;52.002;5.468;2023-05-15T05:28:20;60.15;;;37.70;;
68074;SDS011;54864;52.002;5.468;2023-05-15T05:29:21;57.40;;;38.15;;
68074;SDS011;54864;52.002;5.468;2023-05-15T05:30:23;61.67;;;39.90;;
68074;SDS011;54864;52.002;5.468;2023-05-15T05:31:24;61.53;;;39.53;;
68074;SDS011;54864;52.002;5.468;2023-05-15T05:32:25;64.32;;;39.53;;
68074;SDS011;54864;52.002;5.468;2023-05-15T05:33:26;62.67;;;38.97;;
68074;SDS011;54864;52.002;5.468;2023-05-15T05:34:28;61.70;;;39.38;;
68074;SDS011;54864;52.002;5.468;2023-05-15T05:35:30;63.75;;;40.35;;
68074;SDS011;54864;52.002;5.468;2023-05-15T05:36:32;60.55;;;38.70;;
68074;SDS011;54864;52.002;5.468;2023-05-15T05:37:32;59.25;;;38.53;;
68074;SDS011;54864;52.002;5.468;2023-05-15T05:38:34;63.05;;;40.05;;
68074;SDS011;54864;52.002;5.468;2023-05-15T05:39:35;64.75;;;40.00;;
68074;SDS011;54864;52.002;5.468;2023-05-15T05:40:37;60.72;;;40.00;;
68074;SDS011;54864;52.002;5.468;2023-05-15T05:41:38;61.47;;;39.33;;
68074;SDS011;54864;52.002;5.468;2023-05-15T05:42:40;61.03;;;39.83;;
68074;SDS011;54864;52.002;5.468;2023-05-15T05:43:46;62.67;;;39.38;;
68074;SDS011;54864;52.002;5.468;2023-05-15T05:44:48;60.47;;;39.10;;
68074;SDS011;54864;52.002;5.468;2023-05-15T05:45:49;61.17;;;40.05;;
68074;SDS011;54864;52.002;5.468;2023-05-15T05:46:51;62.55;;;39.70;;
68074;SDS011;54864;52.002;5.468;2023-05-15T05:47:52;64.53;;;39.88;;
68074;SDS011;54864;52.002;5.468;2023-05-15T05:48:55;62.75;;;39.45;;
68074;SDS011;54864;52.002;5.468;2023-05-15T05:49:55;64.07;;;41.42;;
68074;SDS011;54864;52.002;5.468;2023-05-15T05:50:59;68.35;;;41.60;;
68074;SDS011;54864;52.002;5.468;2023-05-15T05:52:03;65.05;;;39.92;;
68074;SDS011;54864;52.002;5.468;2023-05-15T05:53:09;59.10;;;39.42;;
68074;SDS011;54864;52.002;5.468;2023-05-15T05:54:10;63.78;;;40.40;;
68074;SDS011;54864;52.002;5.468;2023-05-15T05:55:14;60.55;;;39.05;;
68074;SDS011;54864;52.002;5.468;2023-05-15T05:56:15;60.95;;;38.42;;
68074;SDS011;54864;52.002;5.468;2023-05-15T05:57:16;58.17;;;38.55;;
68074;SDS011;54864;52.002;5.468;2023-05-15T05:58:18;62.30;;;39.58;;
68074;SDS011;54864;52.002;5.468;2023-05-15T05:59:20;62.47;;;38.72;;
68074;SDS011;54864;52.002;5.468;2023-05-15T06:00:22;64.15;;;40.97;;
68074;SDS011;54864;52.002;5.468;2023-05-15T06:01:24;61.17;;;38.40;;
68074;SDS011;54864;52.002;5.468;2023-05-15T06:02:26;62.13;;;39.90;;
68074;SDS011;54864;52.002;5.468;2023-05-15T06:03:27;67.18;;;41.53;;
68074;SDS011;54864;52.002;5.468;2023-05-15T06:04:29;61.42;;;39.92;;
68074;SDS011;54864;52.002;5.468;2023-05-15T06:05:31;61.78;;;39.42;;
68074;SDS011;54864;52.002;5.468;2023-05-15T06:06:34;63.43;;;40.00;;
68074;SDS011;54864;52.002;5.468;2023-05-15T06:07:36;61.37;;;39.70;;
68074;SDS011;54864;52.002;5.468;2023-05-15T06:08:39;68.72;;;41.05;;